Time;durP1;ratioP1;P1;durP2;ratioP2;P2;SDS_P1;SDS_P2;PMS_P1;PMS_P2;Temp;Humidity;BMP_temperature;BMP_pressure;BME280_temperature;BME280_humidity;BME280_pressure;Samples;Min_cycle;Max_cycle;Signal;HPM_P1;HPM_P2
2024/03/12 00:00:43;;;;;;;49.58;26.33;;;;;;;;;;5072546;28;20494;-73
2024/03/12 00:03:11;;;;;;;50.10;26.42;;;;;;;;;;5056910;28;20394;-79
2024/03/12 00:05:37;;;;;;;53.97;26.65;;;;;;;;;;5052865;28;20040;-73
2024/03/12 00:08:03;;;;;;;52.03;26.50;;;;;;;;;;5054104;28;20078;-73
2024/03/12 00:10:29;;;;;;;48.20;26.45;;;;;;;;;;5061810;28;20025;-79
2024/03/12 00:12:56;;;;;;;52.50;25.38;;;;;;;;;;5060735;28;20039;-78
2024/03/12 00:15:23;;;;;;;43.05;23.90;;;;;;;;;;5068895;28;20474;-79
2024/03/12 00:17:49;;;;;;;45.53;24.95;;;;;;;;;;5065761;28;20074;-73
2024/03/12 00:20:24;;;;;;;45.55;23.73;;;;;;;;;;5068685;28;20036;-79
2024/03/12 00:22:50;;;;;;;42.00;23.58;;;;;;;;;;5069281;28;20462;-73
2024/03/12 00:25:16;;;;;;;44.22;23.50;;;;;;;;;;5061078;28;20074;-79
2024/03/12 00:27:43;;;;;;;41.47;21.90;;;;;;;;;;5057955;28;20116;-79
2024/03/12 00:30:10;;;;;;;47.88;24.48;;;;;;;;;;5057898;28;20051;-79
2024/03/12 00:32:38;;;;;;;45.92;23.90;;;;;;;;;;5056517;28;20029;-79
2024/03/12 00:35:04;;;;;;;41.58;22.42;;;;;;;;;;5058869;28;20086;-79
2024/03/12 00:37:30;;;;;;;43.13;23.40;;;;;;;;;;5054664;28;20029;-79
2024/03/12 00:39:57;;;;;;;41.50;21.00;;;;;;;;;;5057863;28;20098;-73
2024/03/12 00:42:23;;;;;;;41.20;22.40;;;;;;;;;;5055826;28;20029;-79
2024/03/12 00:44:49;;;;;;;42.28;21.60;;;;;;;;;;5054241;28;389840;-79
2024/03/12 00:47:16;;;;;;;42.53;21.92;;;;;;;;;;5073312;28;20024;-78
2024/03/12 00:49:45;;;;;;;44.22;22.23;;;;;;;;;;5070837;28;20021;-79
2024/03/12 00:52:11;;;;;;;39.70;22.30;;;;;;;;;;5073049;28;20028;-79
2024/03/12 00:54:37;;;;;;;39.97;21.08;;;;;;;;;;5056959;28;20025;-79
2024/03/12 00:57:05;;;;;;;43.97;21.98;;;;;;;;;;5054183;28;20433;-80
2024/03/12 00:59:31;;;;;;;40.30;21.60;;;;;;;;;;5058796;28;20488;-73
2024/03/12 01:01:57;;;;;;;38.28;20.27;;;;;;;;;;5058318;28;20028;-79
2024/03/12 01:04:24;;;;;;;39.28;22.40;;;;;;;;;;5051994;28;21928;-79
2024/03/12 01:06:51;;;;;;;41.08;22.17;;;;;;;;;;5055298;28;20386;-79
2024/03/12 01:09:20;;;;;;;40.22;21.65;;;;;;;;;;5058866;28;20431;-73
2024/03/12 01:11:46;;;;;;;38.13;23.70;;;;;;;;;;5052491;28;20025;-74
2024/03/12 01:14:13;;;;;;;43.17;22.90;;;;;;;;;;5053873;28;20051;-73
2024/03/12 01:16:39;;;;;;;43.40;23.63;;;;;;;;;;5054130;28;20028;-78
2024/03/12 01:19:08;;;;;;;41.53;20.73;;;;;;;;;;5053052;28;20470;-79
2024/03/12 01:21:37;;;;;;;39.75;22.00;;;;;;;;;;5054498;28;20478;-79
2024/03/12 01:24:07;;;;;;;42.88;22.90;;;;;;;;;;5064399;28;20028;-80
2024/03/12 01:26:34;;;;;;;44.92;22.25;;;;;;;;;;5059130;28;20036;-79
2024/03/12 01:29:03;;;;;;;45.30;22.13;;;;;;;;;;5072844;28;20016;-79
2024/03/12 01:31:31;;;;;;;46.50;24.17;;;;;;;;;;5070102;28;20031;-73
2024/03/12 01:33:57;;;;;;;47.03;24.77;;;;;;;;;;5059402;28;20087;-79
2024/03/12 01:36:34;;;;;;;45.90;22.05;;;;;;;;;;5060983;28;20033;-78
2024/03/12 01:39:03;;;;;;;45.75;23.80;;;;;;;;;;5061226;28;20021;-78
2024/03/12 01:41:32;;;;;;;42.92;23.55;;;;;;;;;;5065637;28;20032;-78
2024/03/12 01:44:02;;;;;;;47.00;24.60;;;;;;;;;;5065097;28;20047;-73
2024/03/12 01:46:31;;;;;;;53.20;24.92;;;;;;;;;;5056726;28;20363;-78
2024/03/12 01:49:00;;;;;;;45.25;22.15;;;;;;;;;;5053305;28;20052;-79
2024/03/12 01:51:29;;;;;;;45.75;22.80;;;;;;;;;;5062722;28;20509;-73
2024/03/12 01:53:56;;;;;;;42.88;23.50;;;;;;;;;;5059295;28;20033;-73
2024/03/12 01:56:24;;;;;;;55.25;24.73;;;;;;;;;;5054651;28;20424;-78
2024/03/12 01:58:50;;;;;;;49.00;23.67;;;;;;;;;;5053330;28;20021;-74
2024/03/12 02:01:19;;;;;;;46.97;24.50;;;;;;;;;;5056244;28;20058;-73
2024/03/12 02:03:47;;;;;;;43.67;22.27;;;;;;;;;;5053183;28;20017;-73
2024/03/12 02:06:13;;;;;;;43.92;22.70;;;;;;;;;;5053492;28;20021;-80
2024/03/12 02:08:40;;;;;;;51.40;24.92;;;;;;;;;;5058320;28;20021;-74
2024/03/12 02:11:06;;;;;;;48.90;24.90;;;;;;;;;;5059488;28;20048;-73
2024/03/12 02:13:32;;;;;;;42.95;22.60;;;;;;;;;;5053728;28;20072;-79
2024/03/12 02:15:58;;;;;;;43.53;21.65;;;;;;;;;;5057389;28;20426;-73
2024/03/12 02:18:24;;;;;;;47.00;23.70;;;;;;;;;;5057587;28;20134;-79
2024/03/12 02:20:50;;;;;;;41.33;22.77;;;;;;;;;;5060414;28;20478;-79
2024/03/12 02:23:16;;;;;;;48.50;23.55;;;;;;;;;;5059910;28;20059;-73
2024/03/12 02:25:42;;;;;;;42.30;22.38;;;;;;;;;;5058335;28;20044;-74
2024/03/12 02:28:09;;;;;;;54.67;23.08;;;;;;;;;;5052994;28;20550;-79
2024/03/12 02:30:35;;;;;;;49.45;24.05;;;;;;;;;;5052283;28;20044;-79
2024/03/12 02:33:02;;;;;;;54.17;25.13;;;;;;;;;;5054001;28;20041;-73
2024/03/12 02:35:28;;;;;;;51.45;25.58;;;;;;;;;;5063441;28;20017;-73
2024/03/12 02:37:55;;;;;;;51.17;25.20;;;;;;;;;;5060073;28;20501;-79
2024/03/12 02:40:21;;;;;;;52.45;23.65;;;;;;;;;;5051958;28;20029;-79
2024/03/12 02:42:47;;;;;;;54.33;25.55;;;;;;;;;;5052861;28;20066;-74
2024/03/12 02:45:14;;;;;;;56.17;27.50;;;;;;;;;;5052647;28;20049;-78
2024/03/12 02:47:41;;;;;;;51.65;23.70;;;;;;;;;;5051871;28;20040;-79
2024/03/12 02:50:08;;;;;;;57.92;26.17;;;;;;;;;;5061658;28;20017;-73
2024/03/12 02:52:35;;;;;;;55.92;25.50;;;;;;;;;;5052243;28;20037;-73
2024/03/12 02:55:01;;;;;;;52.25;25.30;;;;;;;;;;5064946;28;20024;-73
2024/03/12 02:57:27;;;;;;;61.17;24.63;;;;;;;;;;5063968;28;20387;-79
2024/03/12 02:59:53;;;;;;;56.40;25.83;;;;;;;;;;5059713;28;20029;-73
2024/03/12 03:02:19;;;;;;;57.90;24.27;;;;;;;;;;5066160;28;20477;-73
2024/03/12 03:04:45;;;;;;;67.13;28.58;;;;;;;;;;5061931;28;20040;-80
2024/03/12 03:07:11;;;;;;;65.47;28.13;;;;;;;;;;5063649;28;20025;-73
2024/03/12 03:09:37;;;;;;;68.30;26.92;;;;;;;;;;5060450;28;20021;-79
2024/03/12 03:12:03;;;;;;;66.28;26.45;;;;;;;;;;5061969;28;20024;-79
2024/03/12 03:14:30;;;;;;;73.40;29.25;;;;;;;;;;5053067;28;20037;-79
2024/03/12 03:16:56;;;;;;;73.68;26.45;;;;;;;;;;5056574;28;20116;-73
2024/03/12 03:19:22;;;;;;;69.13;28.23;;;;;;;;;;5056579;28;20031;-79
2024/03/12 03:21:49;;;;;;;81.60;28.90;;;;;;;;;;5071963;28;20030;-79
2024/03/12 03:24:15;;;;;;;86.13;28.35;;;;;;;;;;5071258;28;20027;-79
2024/03/12 03:26:41;;;;;;;70.90;25.35;;;;;;;;;;5070476;28;20037;-73
2024/03/12 03:29:07;;;;;;;75.53;27.17;;;;;;;;;;5069781;28;20095;-72
2024/03/12 03:31:33;;;;;;;76.70;28.67;;;;;;;;;;5070414;28;20040;-79
2024/03/12 03:34:04;;;;;;;81.35;26.63;;;;;;;;;;5069685;28;20493;-79
2024/03/12 03:36:31;;;;;;;80.00;26.98;;;;;;;;;;5071389;28;20489;-79
2024/03/12 03:38:57;;;;;;;84.03;27.45;;;;;;;;;;5066349;28;20592;-73
2024/03/12 03:41:23;;;;;;;83.88;28.58;;;;;;;;;;5074657;28;20040;-73
2024/03/12 03:43:50;;;;;;;83.78;28.25;;;;;;;;;;5069166;28;20072;-73
2024/03/12 03:46:16;;;;;;;92.78;29.10;;;;;;;;;;5072730;28;20091;-73
2024/03/12 03:48:42;;;;;;;86.28;28.77;;;;;;;;;;5066197;28;20037;-80
2024/03/12 03:51:10;;;;;;;79.47;27.48;;;;;;;;;;5066116;28;20029;-78
2024/03/12 03:53:36;;;;;;;77.70;26.77;;;;;;;;;;5055489;28;20033;-73
2024/03/12 03:56:02;;;;;;;90.07;28.35;;;;;;;;;;5056602;28;20043;-73
2024/03/12 03:58:29;;;;;;;83.43;27.80;;;;;;;;;;5055371;28;20074;-73
2024/03/12 04:00:55;;;;;;;88.88;27.50;;;;;;;;;;5058483;28;20108;-73
2024/03/12 04:03:21;;;;;;;70.13;27.33;;;;;;;;;;5055171;28;20049;-79
2024/03/12 04:05:47;;;;;;;83.90;27.90;;;;;;;;;;5058333;28;20044;-73
2024/03/12 04:08:14;;;;;;;104.47;30.55;;;;;;;;;;5055397;28;20020;-73
2024/03/12 04:10:42;;;;;;;104.32;30.85;;;;;;;;;;5055818;28;20035;-79
2024/03/12 04:13:09;;;;;;;91.40;29.58;;;;;;;;;;5040721;28;20064;-74
2024/03/12 04:15:35;;;;;;;85.82;28.23;;;;;;;;;;5058490;28;20028;-79
2024/03/12 04:18:02;;;;;;;113.55;29.58;;;;;;;;;;5055271;28;20099;-73
2024/03/12 04:20:28;;;;;;;85.35;27.05;;;;;;;;;;5056518;28;20126;-73
2024/03/12 04:22:55;;;;;;;79.72;25.90;;;;;;;;;;5063205;28;20017;-73
2024/03/12 04:25:21;;;;;;;128.30;33.05;;;;;;;;;;5059005;28;20047;-73
2024/03/12 04:27:48;;;;;;;117.43;32.45;;;;;;;;;;5064528;28;20028;-79
2024/03/12 04:30:14;;;;;;;109.25;31.70;;;;;;;;;;5066218;28;20021;-79
2024/03/12 04:32:40;;;;;;;121.97;32.80;;;;;;;;;;5061520;28;20039;-73
2024/03/12 04:35:12;;;;;;;118.88;30.75;;;;;;;;;;5059545;28;20040;-73
2024/03/12 04:37:38;;;;;;;97.15;28.80;;;;;;;;;;5061951;28;20016;-73
2024/03/12 04:40:08;;;;;;;115.03;30.65;;;;;;;;;;5070203;28;20029;-80
2024/03/12 04:42:38;;;;;;;92.53;30.23;;;;;;;;;;5057333;28;20021;-79
2024/03/12 04:45:05;;;;;;;107.97;29.85;;;;;;;;;;5060302;28;20072;-73
2024/03/12 04:47:31;;;;;;;149.02;37.10;;;;;;;;;;5058287;28;20029;-73
2024/03/12 04:49:57;;;;;;;85.55;29.08;;;;;;;;;;5066983;28;20045;-79
2024/03/12 04:52:23;;;;;;;98.45;30.58;;;;;;;;;;5053001;28;20025;-79
2024/03/12 04:54:49;;;;;;;92.38;29.58;;;;;;;;;;5067311;28;20031;-79
2024/03/12 04:57:15;;;;;;;115.75;29.27;;;;;;;;;;5072843;28;20024;-79
2024/03/12 04:59:41;;;;;;;92.07;28.15;;;;;;;;;;5067988;28;20021;-73
2024/03/12 05:02:07;;;;;;;108.00;29.45;;;;;;;;;;5066161;28;20466;-73
2024/03/12 05:04:33;;;;;;;105.97;30.38;;;;;;;;;;5064307;28;20053;-73
2024/03/12 05:06:59;;;;;;;88.30;29.05;;;;;;;;;;5064668;28;20071;-73
2024/03/12 05:09:25;;;;;;;88.43;27.00;;;;;;;;;;5063828;28;20020;-79
2024/03/12 05:11:52;;;;;;;101.28;32.33;;;;;;;;;;5061202;28;20017;-78
2024/03/12 05:14:18;;;;;;;78.07;28.08;;;;;;;;;;5057018;28;20493;-73
2024/03/12 05:16:44;;;;;;;84.18;26.88;;;;;;;;;;5058974;28;20029;-78
2024/03/12 05:19:11;;;;;;;99.00;29.00;;;;;;;;;;5058513;28;20032;-79
2024/03/12 05:21:37;;;;;;;117.28;31.65;;;;;;;;;;5070426;28;20040;-77
2024/03/12 05:24:04;;;;;;;98.07;29.30;;;;;;;;;;5069336;28;20020;-79
2024/03/12 05:26:31;;;;;;;94.15;29.42;;;;;;;;;;5071289;28;20056;-73
2024/03/12 05:28:58;;;;;;;76.03;26.75;;;;;;;;;;5054506;28;20033;-73
2024/03/12 05:31:32;;;;;;;104.82;29.70;;;;;;;;;;5058129;28;20024;-79
2024/03/12 05:34:02;;;;;;;92.32;27.52;;;;;;;;;;5055389;28;20032;-73
2024/03/12 05:36:40;;;;;;;108.00;29.80;;;;;;;;;;5051605;28;20016;-73
2024/03/12 05:39:18;;;;;;;109.28;30.10;;;;;;;;;;5054057;28;20013;-73
2024/03/12 05:48:07;;;;;;;91.22;26.73;;;;;;;;;;5052712;28;20759;-73
2024/03/12 05:50:08;;;;;;;81.95;26.15;;;;;;;;;;5051527;28;20082;-78
2024/03/12 05:52:34;;;;;;;86.18;26.90;;;;;;;;;;5054038;28;20100;-79
2024/03/12 05:55:00;;;;;;;109.93;27.02;;;;;;;;;;5053844;28;20397;-79
2024/03/12 05:57:26;;;;;;;110.30;27.83;;;;;;;;;;5052245;28;20249;-79
2024/03/12 05:59:52;;;;;;;112.60;27.48;;;;;;;;;;5041327;28;20048;-79
2024/03/12 06:02:18;;;;;;;112.50;28.10;;;;;;;;;;5053158;28;20056;-78
2024/03/12 06:04:44;;;;;;;99.10;28.05;;;;;;;;;;5038792;28;20036;-79
2024/03/12 06:07:12;;;;;;;89.65;27.48;;;;;;;;;;5051917;28;20021;-78
2024/03/12 06:09:38;;;;;;;86.43;27.58;;;;;;;;;;5053202;28;20021;-79
2024/03/12 06:12:04;;;;;;;93.85;27.08;;;;;;;;;;5056584;28;20021;-79
2024/03/12 06:14:31;;;;;;;114.05;30.13;;;;;;;;;;5053354;28;20040;-79
2024/03/12 06:16:57;;;;;;;112.45;30.13;;;;;;;;;;5052914;28;20013;-73
2024/03/12 06:19:24;;;;;;;85.78;29.88;;;;;;;;;;5052591;28;20032;-74
2024/03/12 06:21:50;;;;;;;86.10;28.13;;;;;;;;;;5052603;28;20100;-74
2024/03/12 06:24:16;;;;;;;87.80;28.42;;;;;;;;;;5052855;28;20251;-73
2024/03/12 06:26:42;;;;;;;77.22;24.20;;;;;;;;;;5061798;28;20060;-73
2024/03/12 06:29:08;;;;;;;94.10;26.42;;;;;;;;;;5058974;28;20017;-74
2024/03/12 06:31:34;;;;;;;80.43;25.15;;;;;;;;;;5062984;28;20028;-74
2024/03/12 06:34:01;;;;;;;71.78;25.17;;;;;;;;;;5060041;28;20033;-74
2024/03/12 06:39:33;;;;;;;63.50;23.30;;;;;;;;;;5056727;28;20036;-73
2024/03/12 06:42:07;;;;;;;85.20;25.30;;;;;;;;;;5059690;28;20028;-79
2024/03/12 06:44:35;;;;;;;70.30;21.65;;;;;;;;;;5052951;28;20056;-73
2024/03/12 06:47:01;;;;;;;75.45;22.50;;;;;;;;;;5043554;28;20031;-73
2024/03/12 06:49:27;;;;;;;70.88;22.25;;;;;;;;;;5061329;28;20028;-73
2024/03/12 06:51:54;;;;;;;92.63;26.13;;;;;;;;;;5049267;28;20017;-74
2024/03/12 06:54:26;;;;;;;78.30;24.40;;;;;;;;;;5061320;28;20029;-73
2024/03/12 06:56:53;;;;;;;73.88;24.90;;;;;;;;;;5054264;28;20033;-79
2024/03/12 06:59:21;;;;;;;81.20;24.58;;;;;;;;;;5053232;28;20036;-79
2024/03/12 07:01:53;;;;;;;76.72;22.05;;;;;;;;;;5036700;28;20021;-80
2024/03/12 07:04:23;;;;;;;84.60;23.55;;;;;;;;;;5048784;28;20035;-79
2024/03/12 07:06:50;;;;;;;67.35;22.08;;;;;;;;;;5032323;28;20049;-80
2024/03/12 07:09:26;;;;;;;61.03;22.33;;;;;;;;;;5045172;28;20037;-80
2024/03/12 07:11:58;;;;;;;65.93;21.70;;;;;;;;;;5047488;28;20120;-80
2024/03/12 07:14:27;;;;;;;50.53;20.25;;;;;;;;;;5058917;28;20052;-82
2024/03/12 07:16:57;;;;;;;57.10;20.50;;;;;;;;;;5060560;28;20036;-81
2024/03/12 07:19:23;;;;;;;53.60;21.00;;;;;;;;;;5053074;28;20052;-78
2024/03/12 07:21:55;;;;;;;56.35;22.50;;;;;;;;;;5065954;28;20051;-77
2024/03/12 07:24:23;;;;;;;44.50;19.58;;;;;;;;;;5062291;28;20037;-82
2024/03/12 07:26:48;;;;;;;46.97;19.67;;;;;;;;;;5064534;28;20013;-81
2024/03/12 07:29:15;;;;;;;42.45;21.27;;;;;;;;;;5060999;28;20489;-76
2024/03/12 07:31:41;;;;;;;53.33;21.55;;;;;;;;;;5060273;28;20120;-82
2024/03/12 07:34:07;;;;;;;50.13;21.05;;;;;;;;;;5059632;28;20032;-81
2024/03/12 07:36:33;;;;;;;56.67;20.92;;;;;;;;;;5059439;28;20079;-76
2024/03/12 07:39:00;;;;;;;59.05;21.23;;;;;;;;;;5065051;28;20025;-81
2024/03/12 07:41:26;;;;;;;53.70;20.05;;;;;;;;;;5060612;28;20029;-82
2024/03/12 07:43:52;;;;;;;53.05;22.75;;;;;;;;;;5064258;28;20087;-76
2024/03/12 07:46:18;;;;;;;55.55;21.25;;;;;;;;;;5043165;28;20026;-82
2024/03/12 07:48:45;;;;;;;44.50;21.88;;;;;;;;;;5057947;28;20386;-82
2024/03/12 07:51:11;;;;;;;45.85;21.45;;;;;;;;;;5063392;28;20474;-82
2024/03/12 07:53:37;;;;;;;50.78;21.10;;;;;;;;;;5062497;28;20032;-81
2024/03/12 07:56:05;;;;;;;44.33;19.88;;;;;;;;;;5059995;28;20032;-76
2024/03/12 07:58:31;;;;;;;13.45;10.50;;;;;;;;;;5060432;28;20020;-82
2024/03/12 08:00:58;;;;;;;50.08;20.35;;;;;;;;;;5059558;28;20082;-81
2024/03/12 08:03:24;;;;;;;53.92;21.15;;;;;;;;;;5063514;28;20482;-81
2024/03/12 08:05:50;;;;;;;58.33;22.00;;;;;;;;;;5069433;28;20417;-82
2024/03/12 08:08:16;;;;;;;54.30;22.02;;;;;;;;;;5063837;28;20029;-77
2024/03/12 08:10:43;;;;;;;63.08;22.63;;;;;;;;;;5056853;28;20245;-81
2024/03/12 08:13:10;;;;;;;80.75;24.63;;;;;;;;;;5055477;28;20126;-81
2024/03/12 08:15:36;;;;;;;53.35;22.17;;;;;;;;;;5057143;28;20066;-81
2024/03/12 08:18:02;;;;;;;62.60;20.60;;;;;;;;;;5050822;28;20018;-77
2024/03/12 08:20:28;;;;;;;55.42;20.60;;;;;;;;;;5066934;28;20021;-81
2024/03/12 08:22:54;;;;;;;51.88;20.10;;;;;;;;;;5061839;28;20028;-76
2024/03/12 08:25:20;;;;;;;42.38;20.55;;;;;;;;;;5062835;28;20074;-76
2024/03/12 08:27:48;;;;;;;47.42;21.50;;;;;;;;;;5045998;28;20433;-80
2024/03/12 08:30:15;;;;;;;44.75;19.40;;;;;;;;;;5051436;28;20025;-76
2024/03/12 08:32:44;;;;;;;52.25;22.15;;;;;;;;;;5061563;28;20078;-80
2024/03/12 08:35:10;;;;;;;54.33;21.98;;;;;;;;;;5065281;28;20025;-82
2024/03/12 08:37:37;;;;;;;47.45;21.92;;;;;;;;;;5057776;28;20092;-76
2024/03/12 08:40:06;;;;;;;45.90;22.15;;;;;;;;;;5055454;28;20021;-76
2024/03/12 08:42:32;;;;;;;48.60;22.05;;;;;;;;;;5060780;28;20021;-77
2024/03/12 08:44:58;;;;;;;53.03;23.33;;;;;;;;;;5062575;28;20040;-80
2024/03/12 08:47:25;;;;;;;79.28;27.42;;;;;;;;;;5066995;28;20020;-77
2024/03/12 08:49:51;;;;;;;50.33;21.65;;;;;;;;;;5062595;28;20019;-80
2024/03/12 08:52:17;;;;;;;74.85;27.30;;;;;;;;;;5050937;28;20072;-78
2024/03/12 08:54:43;;;;;;;57.78;24.42;;;;;;;;;;5056298;28;20061;-79
2024/03/12 08:57:09;;;;;;;82.65;28.80;;;;;;;;;;5043698;28;20108;-79
2024/03/12 08:59:35;;;;;;;101.55;29.52;;;;;;;;;;5059606;28;20103;-84
2024/03/12 09:02:02;;;;;;;60.13;24.58;;;;;;;;;;5060212;28;20466;-78
2024/03/12 09:04:30;;;;;;;52.08;24.27;;;;;;;;;;5064681;28;20090;-84
2024/03/12 09:06:57;;;;;;;50.55;24.25;;;;;;;;;;5064560;28;20021;-85
2024/03/12 09:09:26;;;;;;;45.63;23.02;;;;;;;;;;5062335;28;20478;-82
2024/03/12 09:11:53;;;;;;;60.60;25.02;;;;;;;;;;5058188;28;20027;-82
2024/03/12 09:14:22;;;;;;;82.28;31.40;;;;;;;;;;5060285;28;20032;-82
2024/03/12 09:16:48;;;;;;;56.88;25.83;;;;;;;;;;5067022;28;20016;-86
2024/03/12 09:19:15;;;;;;;56.75;22.45;;;;;;;;;;5065364;28;20481;-86
2024/03/12 09:21:42;;;;;;;74.03;26.73;;;;;;;;;;5068476;28;20675;-82
2024/03/12 09:24:09;;;;;;;77.80;25.92;;;;;;;;;;5057041;28;20053;-87
2024/03/12 09:26:35;;;;;;;53.83;23.25;;;;;;;;;;5064826;28;20012;-85
2024/03/12 09:29:01;;;;;;;58.05;23.83;;;;;;;;;;5072815;28;20088;-84
2024/03/12 09:31:28;;;;;;;54.45;23.40;;;;;;;;;;5062804;28;20168;-89
2024/03/12 09:33:55;;;;;;;44.40;20.92;;;;;;;;;;5059345;28;20508;-83
2024/03/12 09:36:21;;;;;;;49.67;21.55;;;;;;;;;;5053624;28;20021;-83
2024/03/12 09:38:51;;;;;;;51.60;21.40;;;;;;;;;;5065976;28;20012;-88
2024/03/12 09:41:18;;;;;;;48.08;23.08;;;;;;;;;;5061160;28;20048;-87
2024/03/12 09:43:45;;;;;;;48.72;21.70;;;;;;;;;;5060314;28;20161;-87
2024/03/12 09:46:16;;;;;;;44.10;20.50;;;;;;;;;;5054423;28;20060;-88
2024/03/12 09:48:44;;;;;;;44.08;21.15;;;;;;;;;;5055209;28;20131;-87
2024/03/12 09:51:12;;;;;;;53.17;26.20;;;;;;;;;;5058434;28;20021;-85
2024/03/12 09:53:40;;;;;;;50.65;22.63;;;;;;;;;;5054214;28;20037;-90
2024/03/12 09:59:22;;;;;;;47.45;21.05;;;;;;;;;;5023224;28;20034;-87
2024/03/12 10:01:48;;;;;;;122.90;41.95;;;;;;;;;;5044037;28;20438;-92
2024/03/12 10:04:17;;;;;;;47.20;22.48;;;;;;;;;;5061766;28;20032;-83
2024/03/12 10:06:44;;;;;;;33.90;18.25;;;;;;;;;;5052923;28;20025;-84
2024/03/12 10:09:17;;;;;;;65.47;25.35;;;;;;;;;;5058454;28;20078;-86
2024/03/12 10:11:46;;;;;;;;;;;;;;;;;;5051960;28;20021;-87
2024/03/12 10:14:12;;;;;;;38.25;18.92;;;;;;;;;;5056258;28;20358;-87
2024/03/12 10:16:39;;;;;;;36.45;18.35;;;;;;;;;;5054691;28;20025;-87
2024/03/12 10:19:14;;;;;;;85.13;35.38;;;;;;;;;;5054665;28;20473;-89
2024/03/12 10:21:40;;;;;;;68.68;28.27;;;;;;;;;;5050020;28;20021;-85
2024/03/12 10:24:17;;;;;;;59.70;29.27;;;;;;;;;;5054135;28;20162;-88
2024/03/12 10:26:48;;;;;;;102.78;40.25;;;;;;;;;;5054933;28;20024;-86
2024/03/12 10:29:17;;;;;;;57.50;26.88;;;;;;;;;;5051900;28;20520;-82
2024/03/12 10:31:46;;;;;;;43.50;22.48;;;;;;;;;;5054488;28;20031;-87
2024/03/12 10:34:17;;;;;;;81.53;30.88;;;;;;;;;;5050459;28;20048;-88
2024/03/12 10:36:43;;;;;;;73.80;30.50;;;;;;;;;;5051101;28;20024;-85
2024/03/12 10:39:12;;;;;;;53.60;27.17;;;;;;;;;;5053520;28;20021;-83
2024/03/12 10:41:39;;;;;;;43.95;22.38;;;;;;;;;;5047254;28;20017;-82
2024/03/12 10:44:10;;;;;;;49.70;23.50;;;;;;;;;;5049102;28;20497;-83
2024/03/12 10:46:39;;;;;;;51.08;23.30;;;;;;;;;;5052679;28;20017;-89
2024/03/12 10:49:07;;;;;;;45.22;21.50;;;;;;;;;;5060484;28;20013;-85
2024/03/12 10:51:34;;;;;;;39.83;20.85;;;;;;;;;;5055731;28;20035;-87
2024/03/12 10:54:00;;;;;;;45.03;21.30;;;;;;;;;;5069187;28;20063;-86
2024/03/12 10:56:26;;;;;;;38.22;20.25;;;;;;;;;;5054782;28;20106;-83
2024/03/12 10:58:54;;;;;;;38.22;19.10;;;;;;;;;;5066563;28;20413;-80
2024/03/12 11:01:22;;;;;;;40.67;21.02;;;;;;;;;;5052852;28;20481;-89
2024/03/12 11:03:50;;;;;;;37.25;19.30;;;;;;;;;;5052649;28;20048;-87
2024/03/12 11:06:17;;;;;;;33.95;17.98;;;;;;;;;;5052020;28;20052;-83
2024/03/12 11:08:43;;;;;;;40.45;20.15;;;;;;;;;;5044300;28;20036;-85
2024/03/12 11:11:10;;;;;;;39.42;19.08;;;;;;;;;;5047041;28;20029;-80
2024/03/12 11:13:36;;;;;;;36.08;18.25;;;;;;;;;;5057096;28;20393;-87
2024/03/12 11:16:12;;;;;;;40.63;20.20;;;;;;;;;;5057772;28;20025;-85
2024/03/12 11:18:39;;;;;;;31.80;16.67;;;;;;;;;;5057990;28;20082;-84
2024/03/12 11:21:05;;;;;;;33.33;17.27;;;;;;;;;;5059573;28;20021;-85
2024/03/12 11:23:32;;;;;;;33.47;17.10;;;;;;;;;;5059353;28;20029;-83
2024/03/12 11:26:04;;;;;;;34.15;16.98;;;;;;;;;;5054696;28;20061;-85
2024/03/12 11:28:32;;;;;;;33.33;19.02;;;;;;;;;;5070690;28;20031;-84
2024/03/12 11:31:01;;;;;;;36.13;19.75;;;;;;;;;;5071807;28;20029;-80
2024/03/12 11:33:45;;;;;;;31.88;18.08;;;;;;;;;;5057025;28;20040;-83
2024/03/12 11:36:31;;;;;;;34.08;15.60;;;;;;;;;;5064114;28;20374;-80
2024/03/12 11:39:11;;;;;;;27.60;15.55;;;;;;;;;;5045888;28;20027;-79
2024/03/12 11:41:56;;;;;;;24.30;14.27;;;;;;;;;;5049679;28;20091;-79
2024/03/12 11:44:40;;;;;;;25.95;14.57;;;;;;;;;;5046488;28;20096;-79
2024/03/12 11:47:06;;;;;;;34.30;17.13;;;;;;;;;;5051782;28;20030;-81
2024/03/12 11:49:33;;;;;;;32.38;18.48;;;;;;;;;;5051277;28;20029;-81
2024/03/12 11:52:00;;;;;;;109.13;50.90;;;;;;;;;;5054369;28;20418;-79
2024/03/12 11:54:47;;;;;;;32.28;17.67;;;;;;;;;;5049844;28;20402;-79
2024/03/12 11:57:21;;;;;;;26.80;15.27;;;;;;;;;;5050775;28;20032;-80
2024/03/12 11:59:48;;;;;;;26.08;14.45;;;;;;;;;;5054218;28;20017;-82
2024/03/12 12:02:18;;;;;;;465.25;232.82;;;;;;;;;;5052188;28;20032;-80
2024/03/12 12:04:46;;;;;;;269.05;129.43;;;;;;;;;;5063852;28;20028;-73
2024/03/12 12:07:15;;;;;;;85.95;36.80;;;;;;;;;;5045455;28;20025;-76
2024/03/12 12:09:44;;;;;;;69.38;30.80;;;;;;;;;;5051769;28;20463;-78
2024/03/12 12:12:13;;;;;;;276.08;89.15;;;;;;;;;;5059473;28;20450;-77
2024/03/12 12:14:39;;;;;;;51.58;24.83;;;;;;;;;;5055678;28;20033;-73
2024/03/12 12:17:09;;;;;;;253.05;74.18;;;;;;;;;;5063839;28;20070;-76
2024/03/12 12:19:35;;;;;;;318.02;88.85;;;;;;;;;;5060223;28;20024;-76
2024/03/12 12:22:02;;;;;;;325.50;93.95;;;;;;;;;;5060575;28;20063;-76
2024/03/12 12:24:28;;;;;;;177.43;62.08;;;;;;;;;;5058855;28;20383;-77
2024/03/12 12:26:57;;;;;;;52.05;24.40;;;;;;;;;;5052657;28;20048;-75
2024/03/12 12:29:24;;;;;;;39.60;20.23;;;;;;;;;;5050345;28;20031;-77
2024/03/12 12:31:51;;;;;;;218.23;58.03;;;;;;;;;;5064585;28;20050;-74
2024/03/12 12:34:18;;;;;;;45.03;19.85;;;;;;;;;;5070107;28;20040;-75
2024/03/12 12:36:45;;;;;;;52.17;22.27;;;;;;;;;;5054605;28;20032;-75
2024/03/12 12:39:12;;;;;;;334.98;66.68;;;;;;;;;;5071475;28;20025;-76
2024/03/12 12:41:45;;;;;;;155.65;40.55;;;;;;;;;;5064546;28;20032;-76
2024/03/12 12:44:20;;;;;;;331.33;73.55;;;;;;;;;;5067165;28;20123;-76
2024/03/12 12:46:47;;;;;;;260.88;68.32;;;;;;;;;;5064310;28;20087;-76
2024/03/12 12:49:14;;;;;;;341.15;92.32;;;;;;;;;;5051637;28;20394;-77
2024/03/12 12:51:41;;;;;;;101.43;41.83;;;;;;;;;;5049291;28;20041;-76
2024/03/12 12:54:09;;;;;;;44.50;21.35;;;;;;;;;;5050952;28;20032;-76
2024/03/12 12:56:42;;;;;;;31.55;15.23;;;;;;;;;;5054839;28;20072;-76
2024/03/12 12:59:09;;;;;;;33.47;17.88;;;;;;;;;;5066654;28;20032;-76
2024/03/12 13:01:37;;;;;;;30.75;16.98;;;;;;;;;;5056409;28;20029;-76
2024/03/12 13:04:17;;;;;;;34.80;19.30;;;;;;;;;;5061451;28;20473;-77
2024/03/12 13:06:43;;;;;;;47.85;24.77;;;;;;;;;;5049166;28;20064;-76
2024/03/12 13:09:10;;;;;;;40.15;19.48;;;;;;;;;;5051614;28;20058;-79
2024/03/12 13:11:37;;;;;;;58.28;28.38;;;;;;;;;;5049607;28;20080;-84
2024/03/12 13:14:03;;;;;;;75.72;29.55;;;;;;;;;;5055644;28;20062;-83
2024/03/12 13:16:29;;;;;;;37.00;19.83;;;;;;;;;;5054381;28;20471;-83
2024/03/12 13:18:58;;;;;;;61.65;25.73;;;;;;;;;;5055311;28;20021;-83
2024/03/12 13:21:25;;;;;;;31.52;18.20;;;;;;;;;;5063182;28;20052;-83
2024/03/12 13:23:52;;;;;;;33.35;17.92;;;;;;;;;;5039093;28;20116;-84
2024/03/12 13:26:18;;;;;;;43.63;20.58;;;;;;;;;;5043958;28;20025;-83
2024/03/12 13:28:45;;;;;;;40.88;19.85;;;;;;;;;;5046100;28;20025;-79
2024/03/12 13:31:12;;;;;;;51.05;23.58;;;;;;;;;;5040255;28;20026;-84
2024/03/12 13:33:38;;;;;;;36.63;19.40;;;;;;;;;;5046307;28;20036;-84
2024/03/12 13:36:05;;;;;;;37.40;19.50;;;;;;;;;;5048988;28;20481;-84
2024/03/12 13:38:31;;;;;;;35.80;18.58;;;;;;;;;;5039537;28;20031;-83
2024/03/12 13:40:57;;;;;;;30.77;18.15;;;;;;;;;;5038696;28;20037;-86
2024/03/12 13:43:29;;;;;;;32.72;17.30;;;;;;;;;;5063923;28;20029;-91
2024/03/12 13:48:47;;;;;;;31.52;18.75;;;;;;;;;;5024881;28;20104;-85
2024/03/12 13:51:13;;;;;;;33.88;20.08;;;;;;;;;;5059064;28;20035;-89
2024/03/12 13:53:40;;;;;;;26.95;17.30;;;;;;;;;;5057592;28;20517;-91
2024/03/12 13:56:09;;;;;;;30.60;17.25;;;;;;;;;;5069780;28;20025;-89
2024/03/12 13:58:37;;;;;;;27.20;16.05;;;;;;;;;;5066757;28;20021;-89
2024/03/12 14:01:04;;;;;;;42.47;21.83;;;;;;;;;;5068315;28;20051;-89
2024/03/12 14:03:31;;;;;;;33.90;19.55;;;;;;;;;;5054430;28;20036;-85
2024/03/12 14:06:00;;;;;;;30.70;17.55;;;;;;;;;;5064820;28;20082;-87
2024/03/12 14:08:27;;;;;;;29.27;15.98;;;;;;;;;;5048364;28;20030;-88
2024/03/12 14:10:57;;;;;;;25.13;14.55;;;;;;;;;;5048312;28;20025;-86
2024/03/12 14:13:23;;;;;;;31.40;16.65;;;;;;;;;;5063027;28;20041;-89
2024/03/12 14:15:50;;;;;;;28.30;15.43;;;;;;;;;;5050160;28;20041;-93
2024/03/12 14:18:20;;;;;;;31.95;18.83;;;;;;;;;;5056512;28;20052;-84
2024/03/12 14:20:47;;;;;;;47.35;25.70;;;;;;;;;;5059292;28;20021;-86
2024/03/12 14:23:13;;;;;;;32.35;18.45;;;;;;;;;;5057101;28;20083;-86
2024/03/12 14:25:39;;;;;;;36.40;18.50;;;;;;;;;;5040465;28;20558;-89
2024/03/12 14:28:05;;;;;;;44.00;23.38;;;;;;;;;;5057310;28;20048;-80
2024/03/12 14:30:35;;;;;;;40.67;23.15;;;;;;;;;;5046892;28;20028;-82
2024/03/12 14:33:00;;;;;;;52.58;29.08;;;;;;;;;;5059500;28;20359;-82